createdAt,value
2018-07-13T00:01:35.021Z,19.40
2018-07-13T00:04:59.780Z,19.30
2018-07-13T00:08:23.727Z,19.20
2018-07-13T00:11:47.643Z,19.20
2018-07-13T00:15:11.977Z,19.10
2018-07-13T00:18:35.878Z,19.00
2018-07-13T00:21:59.728Z,19.00
2018-07-13T00:25:23.603Z,19.00
2018-07-13T00:28:47.460Z,18.90
2018-07-13T00:32:11.291Z,18.80
2018-07-13T00:35:35.226Z,18.80
2018-07-13T00:38:59.184Z,18.80
2018-07-13T00:42:23.078Z,18.80
2018-07-13T00:45:46.942Z,18.80
2018-07-13T00:49:10.838Z,18.80
2018-07-13T00:52:34.764Z,18.70
2018-07-13T00:55:58.704Z,18.70
2018-07-13T00:59:22.633Z,18.60
2018-07-13T01:02:46.536Z,18.60
2018-07-13T01:06:10.415Z,18.60
2018-07-13T01:09:34.360Z,18.60
2018-07-13T01:12:58.242Z,18.50
2018-07-13T01:16:22.151Z,18.50
2018-07-13T01:23:09.627Z,18.50
2018-07-13T01:26:33.561Z,18.40
2018-07-13T01:29:58.250Z,18.40
2018-07-13T01:33:22.174Z,18.30
2018-07-13T01:36:46.070Z,18.30
2018-07-13T01:40:09.956Z,18.30
2018-07-13T01:43:33.829Z,18.30
2018-07-13T01:46:57.706Z,18.20
2018-07-13T01:50:21.602Z,18.20
2018-07-13T01:53:45.513Z,18.20
2018-07-13T01:57:09.393Z,18.30
2018-07-13T02:00:33.338Z,18.30
2018-07-13T02:03:58.207Z,18.20
2018-07-13T02:07:22.060Z,18.10
2018-07-13T02:10:45.921Z,18.00
2018-07-13T02:17:33.320Z,18.00
2018-07-13T02:20:57.982Z,17.90
2018-07-13T02:27:46.116Z,17.80
2018-07-13T02:31:10.015Z,17.90
2018-07-13T02:34:33.877Z,17.90
2018-07-13T02:37:58.516Z,17.90
2018-07-13T02:41:23.442Z,17.90
2018-07-13T02:44:48.144Z,17.90
2018-07-13T02:48:12.824Z,17.80
2018-07-13T02:51:37.424Z,17.80
2018-07-13T02:55:02.085Z,17.80
2018-07-13T03:01:51.080Z,17.70
2018-07-13T03:05:15.852Z,17.80
2018-07-13T03:08:40.479Z,17.70
2018-07-13T03:12:05.098Z,17.70
2018-07-13T03:15:29.762Z,17.60
2018-07-13T03:18:54.416Z,17.40
2018-07-13T03:22:19.112Z,17.30
2018-07-13T03:25:43.740Z,17.20
2018-07-13T03:29:08.608Z,17.20
2018-07-13T03:32:33.288Z,17.20
2018-07-13T03:35:57.899Z,17.10
2018-07-13T03:39:22.591Z,17.10
2018-07-13T03:42:47.185Z,17.00
2018-07-13T03:46:11.791Z,17.00
2018-07-13T03:49:36.453Z,17.00
2018-07-13T03:53:01.077Z,17.00
2018-07-13T03:56:25.708Z,16.90
2018-07-13T03:59:50.599Z,16.90
2018-07-13T04:03:15.225Z,17.00
2018-07-13T04:06:39.863Z,17.00
2018-07-13T04:10:04.679Z,16.90
2018-07-13T04:13:29.411Z,16.90
2018-07-13T04:16:54.122Z,16.90
2018-07-13T04:20:18.829Z,16.90
2018-07-13T04:23:43.556Z,17.00
2018-07-13T04:27:08.384Z,16.90
2018-07-13T04:30:33.139Z,16.80
2018-07-13T04:33:58.810Z,16.90
2018-07-13T04:37:23.553Z,16.90
2018-07-13T04:40:48.364Z,16.70
2018-07-13T04:44:13.104Z,16.70
2018-07-13T04:47:38.010Z,16.80
2018-07-13T04:51:02.768Z,17.00
2018-07-13T04:54:27.567Z,17.00
2018-07-13T04:57:52.588Z,17.10
2018-07-13T05:01:18.578Z,17.10
2018-07-13T05:04:43.564Z,17.10
2018-07-13T05:08:08.804Z,17.10
2018-07-13T05:11:33.528Z,17.20
2018-07-13T05:14:58.488Z,17.30
2018-07-13T05:18:23.220Z,17.30
2018-07-13T05:21:48.058Z,17.30
2018-07-13T05:25:12.841Z,17.50
2018-07-13T05:28:37.638Z,17.60
2018-07-13T05:32:02.404Z,17.60
2018-07-13T05:35:27.169Z,17.80
2018-07-13T05:38:52.421Z,18.00
2018-07-13T05:42:17.412Z,18.00
2018-07-13T05:45:42.145Z,18.10
2018-07-13T05:49:06.893Z,18.30
2018-07-13T05:52:31.601Z,18.30
2018-07-13T05:55:57.389Z,18.40
2018-07-13T06:02:46.479Z,18.70
2018-07-13T06:06:11.217Z,18.90
2018-07-13T06:09:35.983Z,18.90
2018-07-13T06:13:00.769Z,19.00
2018-07-13T06:16:25.432Z,19.00
2018-07-13T06:19:50.174Z,19.10
2018-07-13T06:23:15.056Z,19.20
2018-07-13T06:26:39.742Z,19.30
2018-07-13T06:30:05.182Z,19.40
2018-07-13T06:33:29.888Z,19.40
2018-07-13T06:40:19.130Z,19.40
2018-07-13T06:43:43.955Z,19.40
2018-07-13T06:50:33.101Z,19.60
2018-07-13T06:53:58.872Z,19.80
2018-07-13T07:01:08.789Z,20.00
2018-07-13T07:04:34.843Z,20.20
2018-07-13T07:07:59.597Z,20.30
2018-07-13T07:14:50.101Z,20.50
2018-07-13T07:18:14.834Z,20.60
2018-07-13T07:21:39.607Z,20.70
2018-07-13T07:25:04.409Z,20.70
2018-07-13T07:28:29.703Z,20.80
2018-07-13T07:31:54.497Z,21.00
2018-07-13T07:35:19.290Z,21.10
2018-07-13T07:38:45.030Z,21.10
2018-07-13T07:42:09.883Z,21.10
2018-07-13T07:45:34.708Z,21.20
2018-07-13T07:48:59.619Z,21.40
2018-07-13T07:52:24.519Z,21.40
2018-07-13T07:55:49.383Z,21.60
2018-07-13T07:59:14.193Z,21.80
2018-07-13T08:02:39.118Z,22.00
2018-07-13T08:06:04.035Z,22.20
2018-07-13T08:09:28.836Z,22.40
2018-07-13T08:12:53.649Z,22.40
2018-07-13T08:16:18.444Z,22.50
2018-07-13T08:19:43.231Z,22.70
2018-07-13T08:23:11.487Z,22.70
2018-07-13T08:26:36.324Z,22.90
2018-07-13T08:30:02.345Z,22.80
2018-07-13T08:33:27.082Z,22.80
2018-07-13T08:36:51.882Z,22.80
2018-07-13T08:40:16.774Z,22.90
2018-07-13T08:43:41.632Z,23.00
2018-07-13T08:47:07.547Z,23.00
2018-07-13T08:50:32.726Z,23.00
2018-07-13T08:53:57.679Z,23.20
2018-07-13T08:57:22.447Z,23.40
2018-07-13T09:00:47.484Z,23.70
2018-07-13T09:04:12.501Z,23.80
2018-07-13T09:07:37.889Z,23.60
2018-07-13T09:11:02.768Z,23.70
2018-07-13T09:14:27.575Z,23.80
2018-07-13T09:17:52.423Z,23.90
2018-07-13T09:21:17.323Z,24.00
2018-07-13T09:24:42.309Z,24.30
2018-07-13T09:28:07.450Z,24.50
2018-07-13T09:31:33.505Z,24.60
2018-07-13T09:34:58.285Z,24.60
2018-07-13T09:41:47.443Z,24.60
2018-07-13T09:45:13.199Z,24.60
2018-07-13T09:48:37.936Z,24.60
2018-07-13T09:52:03.341Z,24.80
2018-07-13T09:58:54.521Z,25.00
2018-07-13T10:02:19.209Z,25.30
2018-07-13T10:05:43.979Z,25.60
2018-07-13T10:09:08.811Z,25.70
2018-07-13T10:12:33.534Z,25.80
2018-07-13T10:19:24.135Z,25.90
2018-07-13T10:22:49.192Z,26.10
2018-07-13T10:26:22.429Z,26.10
2018-07-13T10:29:54.471Z,26.10
2018-07-13T10:33:21.001Z,26.10
2018-07-13T10:36:57.669Z,26.10
2018-07-13T10:43:47.130Z,26.20
2018-07-13T10:50:36.502Z,26.40
2018-07-13T10:54:01.406Z,26.30
2018-07-13T10:57:28.870Z,26.70
2018-07-13T11:00:53.619Z,26.90
2018-07-13T11:04:18.256Z,27.00
2018-07-13T11:07:44.093Z,27.00
2018-07-13T11:11:09.091Z,26.90
2018-07-13T11:14:33.833Z,27.00
2018-07-13T11:17:58.702Z,27.00
2018-07-13T11:21:23.395Z,26.90
2018-07-13T11:24:48.310Z,26.80
2018-07-13T11:28:13.192Z,27.10
2018-07-13T11:31:38.048Z,27.30
2018-07-13T11:35:02.962Z,27.60
2018-07-13T11:38:27.865Z,27.70
2018-07-13T11:41:52.725Z,27.90
2018-07-13T11:45:17.506Z,28.00
2018-07-13T11:48:43.326Z,28.00
2018-07-13T11:52:08.120Z,27.80
2018-07-13T11:58:57.178Z,27.60
2018-07-13T12:02:21.903Z,27.90
2018-07-13T12:05:46.756Z,27.80
2018-07-13T12:09:11.578Z,27.60
2018-07-13T12:12:36.361Z,27.70
2018-07-13T12:16:01.205Z,27.80
2018-07-13T12:19:25.934Z,27.80
2018-07-13T12:22:50.976Z,28.00
2018-07-13T12:29:40.263Z,27.80
2018-07-13T12:33:06.201Z,28.30
2018-07-13T12:36:30.961Z,28.30
2018-07-13T12:39:55.823Z,28.20
2018-07-13T12:43:20.813Z,28.20
2018-07-13T12:46:45.713Z,28.10
2018-07-13T12:50:10.573Z,28.20
2018-07-13T12:53:35.431Z,28.20
2018-07-13T12:57:00.289Z,28.60
2018-07-13T13:00:25.237Z,28.80
2018-07-13T13:10:39.340Z,29.40
2018-07-13T13:14:04.280Z,29.40
2018-07-13T13:24:17.641Z,28.60
2018-07-13T13:27:42.337Z,28.80
2018-07-13T13:31:07.138Z,29.00
2018-07-13T13:34:31.881Z,29.20
2018-07-13T13:37:56.690Z,29.60
2018-07-13T13:41:21.569Z,29.90
2018-07-13T13:44:46.996Z,29.10
2018-07-13T13:48:11.679Z,28.80
2018-07-13T13:51:36.404Z,29.10
2018-07-13T13:55:01.179Z,29.50
2018-07-13T13:58:25.866Z,29.80
2018-07-13T14:01:50.637Z,29.80
2018-07-13T14:05:15.403Z,29.50
2018-07-13T14:08:40.133Z,29.40
2018-07-13T14:12:05.235Z,29.70
2018-07-13T14:15:29.877Z,29.70
2018-07-13T14:18:54.686Z,29.20
2018-07-13T14:22:19.421Z,29.20
2018-07-13T14:25:44.413Z,29.20
2018-07-13T14:29:10.442Z,29.50
2018-07-13T14:32:35.345Z,29.40
2018-07-13T14:39:24.643Z,29.80
2018-07-13T14:42:49.973Z,29.70
2018-07-13T14:46:14.969Z,29.80
2018-07-13T14:49:39.714Z,30.00
2018-07-13T14:53:04.608Z,29.80
2018-07-13T14:56:29.615Z,29.60
2018-07-13T14:59:54.412Z,29.50
2018-07-13T15:03:20.445Z,29.70
2018-07-13T15:06:45.318Z,29.80
2018-07-13T15:10:10.736Z,29.90
2018-07-13T15:13:35.662Z,30.00
2018-07-13T15:17:00.479Z,30.10
2018-07-13T15:20:25.321Z,30.10
2018-07-13T15:23:50.139Z,30.60
2018-07-13T15:27:15.696Z,31.20
2018-07-13T15:30:40.543Z,31.20
2018-07-13T15:34:05.692Z,31.00
2018-07-13T15:37:30.457Z,30.80
2018-07-13T15:40:55.214Z,30.80
2018-07-13T15:47:44.378Z,30.40
2018-07-13T15:51:09.166Z,30.50
2018-07-13T15:54:33.865Z,31.10
2018-07-13T15:57:58.525Z,31.50
2018-07-13T16:01:24.379Z,31.70
2018-07-13T16:11:42.825Z,31.30
2018-07-13T16:15:07.772Z,31.10
2018-07-13T16:18:33.428Z,31.50
2018-07-13T16:25:22.634Z,32.40
2018-07-13T16:28:47.394Z,32.60
2018-07-13T16:32:12.238Z,32.60
2018-07-13T16:35:36.908Z,32.80
2018-07-13T16:39:01.766Z,32.70
2018-07-13T16:42:26.554Z,33.00
2018-07-13T16:45:51.328Z,33.10
2018-07-13T16:49:16.006Z,33.00
2018-07-13T16:52:44.295Z,33.00
2018-07-13T16:56:09.026Z,32.80
2018-07-13T16:59:34.661Z,32.30
2018-07-13T17:02:59.414Z,32.50
2018-07-13T17:09:50.455Z,32.40
2018-07-13T17:13:16.542Z,31.80
2018-07-13T17:16:41.305Z,31.50
2018-07-13T17:20:06.103Z,30.90
2018-07-13T17:26:55.268Z,30.90
2018-07-13T17:33:46.634Z,31.20
2018-07-13T17:37:11.478Z,31.20
2018-07-13T17:40:36.241Z,31.10
2018-07-13T17:44:01.055Z,31.20
2018-07-13T17:47:25.897Z,30.70
2018-07-13T17:57:39.543Z,29.60
2018-07-13T18:01:05.385Z,29.30
2018-07-13T18:04:30.055Z,29.00
2018-07-13T18:07:55.740Z,28.80
2018-07-13T18:11:20.563Z,28.50
2018-07-13T18:14:45.348Z,28.50
2018-07-13T18:18:10.116Z,28.30
2018-07-13T18:21:35.008Z,28.10
2018-07-13T18:24:59.969Z,27.90
2018-07-13T18:31:49.189Z,27.90
2018-07-13T18:35:13.921Z,28.00
2018-07-13T18:38:38.749Z,28.10
2018-07-13T18:42:03.235Z,27.90
2018-07-13T18:45:27.136Z,27.70
2018-07-13T18:48:51.029Z,27.50
2018-07-13T18:52:14.931Z,27.30
2018-07-13T18:55:38.943Z,27.20
2018-07-13T19:02:26.543Z,26.90
2018-07-13T19:09:14.164Z,26.60
2018-07-13T19:12:38.190Z,26.50
2018-07-13T19:16:02.179Z,26.30
2018-07-13T19:19:26.377Z,26.20
2018-07-13T19:22:50.563Z,26.00
2018-07-13T19:26:14.600Z,25.90
2018-07-13T19:29:39.641Z,25.70
2018-07-13T19:33:03.701Z,25.60
2018-07-13T19:36:27.703Z,25.50
2018-07-13T19:39:51.707Z,25.40
2018-07-13T19:43:15.626Z,25.20
2018-07-13T19:46:40.008Z,25.10
2018-07-13T19:50:04.828Z,25.00
2018-07-13T19:53:29.712Z,25.00
2018-07-13T19:56:55.729Z,24.80
2018-07-13T20:00:20.449Z,24.80
2018-07-13T20:03:45.194Z,24.70
2018-07-13T20:07:10.055Z,24.70
2018-07-13T20:10:35.170Z,24.70
2018-07-13T20:13:59.993Z,24.60
2018-07-13T20:24:14.290Z,24.60
2018-07-13T20:27:55.702Z,24.60
2018-07-13T20:31:21.654Z,24.60
2018-07-13T20:34:46.609Z,24.60
2018-07-13T20:41:36.268Z,24.50
2018-07-13T20:45:01.222Z,24.40
2018-07-13T20:48:26.070Z,24.50
2018-07-13T20:51:50.889Z,24.40
2018-07-13T20:55:15.857Z,24.40
2018-07-13T20:58:40.552Z,24.40
2018-07-13T21:02:09.574Z,24.40
2018-07-13T21:05:35.307Z,24.30
2018-07-13T21:12:24.521Z,24.20
2018-07-13T21:15:49.321Z,24.10
2018-07-13T21:19:14.217Z,24.10
2018-07-13T21:22:38.898Z,24.00
2018-07-13T21:29:28.100Z,23.80
2018-07-13T21:32:52.810Z,23.70
2018-07-13T21:36:17.563Z,23.70
2018-07-13T21:43:06.811Z,23.70
2018-07-13T21:46:31.470Z,23.80
2018-07-13T21:53:22.039Z,23.70
2018-07-13T21:56:47.243Z,23.60
2018-07-13T22:03:36.957Z,23.40
2018-07-13T22:07:02.026Z,23.50
2018-07-13T22:10:27.179Z,23.50
2018-07-13T22:17:17.296Z,23.50
2018-07-13T22:20:42.562Z,23.50
2018-07-13T22:24:08.132Z,23.60
2018-07-13T22:27:32.909Z,23.50
2018-07-13T22:30:57.609Z,23.50
2018-07-13T22:34:22.384Z,23.50
2018-07-13T22:41:11.476Z,23.40
2018-07-13T22:44:36.101Z,23.40
2018-07-13T22:48:00.894Z,23.40
2018-07-13T22:54:49.990Z,23.40
2018-07-13T22:58:14.680Z,23.30
2018-07-13T23:01:39.362Z,23.30
2018-07-13T23:05:04.164Z,23.20
2018-07-13T23:08:28.980Z,23.10
2018-07-13T23:11:53.732Z,22.90
2018-07-13T23:18:42.944Z,22.90
2018-07-13T23:22:07.627Z,22.80
2018-07-13T23:25:32.292Z,22.90
2018-07-13T23:28:56.986Z,22.80
2018-07-13T23:32:21.724Z,22.80
2018-07-13T23:35:46.356Z,22.80
2018-07-13T23:39:11.123Z,22.70
2018-07-13T23:42:35.857Z,22.60
2018-07-13T23:46:00.520Z,22.60
2018-07-13T23:49:25.325Z,22.70
2018-07-13T23:52:50.026Z,22.70
2018-07-13T23:56:14.756Z,22.80
2018-07-13T23:59:39.449Z,22.70
